createdAt,value
2024-04-23T00:01:57.060Z,0.13
2024-04-23T00:04:59.670Z,0.22
2024-04-23T00:08:02.219Z,0.33
2024-04-23T00:11:05.066Z,0.42
2024-04-23T00:14:07.587Z,0.52
2024-04-23T00:17:10.051Z,0.60
2024-04-23T00:20:12.529Z,0.66
2024-04-23T00:23:16.047Z,0.71
2024-04-23T00:26:18.634Z,0.76
2024-04-23T00:29:21.164Z,0.81
2024-04-23T00:32:37.110Z,0.83
2024-04-23T00:35:39.659Z,0.88
2024-04-23T00:38:42.123Z,0.94
2024-04-23T00:41:44.717Z,0.98
2024-04-23T00:44:47.990Z,1.03
2024-04-23T00:51:07.776Z,1.09
2024-04-23T00:54:11.485Z,1.10
2024-04-23T00:57:14.090Z,1.10
2024-04-23T01:00:16.897Z,1.06
2024-04-23T01:03:35.975Z,1.02
2024-04-23T01:06:39.071Z,1.01
2024-04-23T01:09:41.855Z,0.98
2024-04-23T01:12:44.525Z,0.96
2024-04-23T01:15:49.153Z,0.93
2024-04-23T01:18:53.027Z,0.92
2024-04-23T01:22:04.100Z,0.90
2024-04-23T01:25:14.830Z,0.88
2024-04-23T01:28:18.593Z,0.88
2024-04-23T01:31:21.867Z,0.88
2024-04-23T01:34:25.681Z,0.86
2024-04-23T01:37:30.451Z,0.85
2024-04-23T01:40:33.894Z,0.81
2024-04-23T01:43:37.148Z,0.78
2024-04-23T01:46:40.726Z,0.72
2024-04-23T01:49:44.098Z,0.67
2024-04-23T01:52:46.814Z,0.61
2024-04-23T01:55:50.242Z,0.56
2024-04-23T01:58:53.027Z,0.52
2024-04-23T02:01:58.067Z,0.50
2024-04-23T02:05:01.054Z,0.48
2024-04-23T02:08:03.812Z,0.44
2024-04-23T02:11:06.637Z,0.39
2024-04-23T02:14:09.461Z,0.36
2024-04-23T02:17:14.364Z,0.34
2024-04-23T02:20:16.964Z,0.32
2024-04-23T02:23:19.480Z,0.30
2024-04-23T02:26:21.984Z,0.28
2024-04-23T02:29:24.418Z,0.25
2024-04-23T02:32:27.026Z,0.22
2024-04-23T02:35:29.555Z,0.18
2024-04-23T02:38:32.218Z,0.14
2024-04-23T02:41:37.770Z,0.09
2024-04-23T02:44:40.256Z,0.05
2024-04-23T02:47:42.811Z,-0.00
2024-04-23T02:50:45.382Z,-0.04
2024-04-23T02:53:47.864Z,-0.08
2024-04-23T02:56:52.028Z,-0.12
2024-04-23T02:59:54.570Z,-0.15
2024-04-23T03:03:49.095Z,-0.17
2024-04-23T03:06:51.698Z,-0.19
2024-04-23T03:09:54.185Z,-0.19
2024-04-23T03:12:56.842Z,-0.19
2024-04-23T03:15:59.400Z,-0.20
2024-04-23T03:19:01.926Z,-0.20
2024-04-23T03:22:04.474Z,-0.18
2024-04-23T03:25:07.421Z,-0.13
2024-04-23T03:28:10.015Z,-0.08
2024-04-23T03:31:12.756Z,-0.02
2024-04-23T03:34:15.514Z,0.04
2024-04-23T03:37:18.039Z,0.10
2024-04-23T03:40:20.859Z,0.17
2024-04-23T03:43:23.338Z,0.23
2024-04-23T03:46:25.843Z,0.28
2024-04-23T03:49:28.399Z,0.34
2024-04-23T03:52:30.912Z,0.39
2024-04-23T03:55:33.364Z,0.46
2024-04-23T03:58:35.876Z,0.52
2024-04-23T04:01:38.503Z,0.58
2024-04-23T04:05:00.003Z,0.67
2024-04-23T04:08:02.598Z,0.78
2024-04-23T04:11:05.963Z,0.90
2024-04-23T04:14:08.710Z,1.02
2024-04-23T04:17:11.360Z,1.12
2024-04-23T04:20:14.059Z,1.22
2024-04-23T04:23:16.575Z,1.35
2024-04-23T04:26:19.055Z,1.45
2024-04-23T04:29:21.496Z,1.55
2024-04-23T04:32:24.066Z,1.64
2024-04-23T04:35:26.553Z,1.71
2024-04-23T04:38:29.074Z,1.72
2024-04-23T04:41:31.616Z,1.78
2024-04-23T04:44:34.125Z,1.87
2024-04-23T04:47:36.773Z,1.92
2024-04-23T04:50:39.447Z,1.98
2024-04-23T04:53:41.982Z,2.08
2024-04-23T04:56:44.486Z,2.22
2024-04-23T04:59:47.071Z,2.38
2024-04-23T05:02:49.584Z,2.54
2024-04-23T05:05:52.096Z,2.77
2024-04-23T05:08:54.614Z,3.00
2024-04-23T05:11:57.186Z,3.18
2024-04-23T05:14:59.617Z,3.35
2024-04-23T05:18:02.255Z,3.49
2024-04-23T05:21:04.946Z,3.57
2024-04-23T05:24:07.672Z,3.58
2024-04-23T05:27:10.215Z,3.58
2024-04-23T05:30:35.180Z,3.66
2024-04-23T05:33:37.803Z,3.84
2024-04-23T05:36:40.403Z,3.96
2024-04-23T05:39:42.831Z,4.04
2024-04-23T05:42:45.804Z,4.11
2024-04-23T05:45:48.367Z,4.20
2024-04-23T05:49:28.019Z,4.36
2024-04-23T05:53:08.127Z,4.56
2024-04-23T05:56:10.655Z,4.80
2024-04-23T05:59:13.164Z,5.03
2024-04-23T06:02:15.689Z,5.16
2024-04-23T06:05:18.228Z,5.28
2024-04-23T06:08:20.764Z,5.34
2024-04-23T06:11:23.517Z,5.38
2024-04-23T06:14:26.037Z,5.50
2024-04-23T06:17:35.904Z,5.62
2024-04-23T06:20:44.126Z,5.69
2024-04-23T06:23:46.577Z,5.82
2024-04-23T06:26:49.030Z,5.98
2024-04-23T06:29:55.422Z,6.24
2024-04-23T06:32:58.036Z,6.51
2024-04-23T06:36:00.586Z,6.74
2024-04-23T06:39:04.610Z,6.81
2024-04-23T06:42:07.199Z,6.84
2024-04-23T06:45:09.689Z,6.92
2024-04-23T06:48:16.607Z,7.11
2024-04-23T06:51:19.105Z,7.17
2024-04-23T06:54:21.696Z,7.19
2024-04-23T06:57:24.315Z,7.29
2024-04-23T07:00:26.802Z,7.38
2024-04-23T07:03:29.324Z,7.49
2024-04-23T07:06:32.257Z,7.60
2024-04-23T07:09:34.730Z,7.66
2024-04-23T07:12:37.349Z,7.69
2024-04-23T07:15:41.504Z,7.75
2024-04-23T07:18:53.779Z,7.77
2024-04-23T07:22:02.881Z,7.78
2024-04-23T07:25:05.641Z,7.80
2024-04-23T07:28:08.072Z,7.84
2024-04-23T07:31:10.539Z,7.85
2024-04-23T07:34:13.068Z,7.85
2024-04-23T07:37:15.926Z,8.00
2024-04-23T07:40:18.402Z,8.09
2024-04-23T07:43:22.289Z,8.11
2024-04-23T07:46:25.271Z,8.11
2024-04-23T07:49:27.776Z,8.18
2024-04-23T07:52:30.289Z,8.19
2024-04-23T07:55:32.844Z,8.31
2024-04-23T07:58:35.425Z,8.30
2024-04-23T08:01:37.923Z,8.27
2024-04-23T08:04:40.436Z,8.39
2024-04-23T08:07:43.062Z,8.53
2024-04-23T08:10:45.623Z,8.67
2024-04-23T08:13:48.128Z,8.72
2024-04-23T08:16:50.761Z,8.81
2024-04-23T08:19:53.360Z,8.80
2024-04-23T08:22:59.341Z,8.97
2024-04-23T08:26:10.177Z,9.25
2024-04-23T08:29:12.846Z,9.47
2024-04-23T08:32:16.013Z,9.65
2024-04-23T08:35:18.567Z,9.80
2024-04-23T08:38:22.891Z,9.89
2024-04-23T08:41:26.957Z,10.07
2024-04-23T08:44:32.913Z,10.37
2024-04-23T08:47:37.782Z,10.58
2024-04-23T08:50:41.081Z,10.78
2024-04-23T08:53:45.138Z,10.98
2024-04-23T08:56:48.177Z,11.14
2024-04-23T08:59:51.703Z,10.95
2024-04-23T09:02:56.293Z,10.74
2024-04-23T09:06:00.352Z,10.69
2024-04-23T09:09:03.789Z,10.44
2024-04-23T09:12:07.548Z,10.31
2024-04-23T09:15:10.157Z,10.16
2024-04-23T09:18:12.978Z,10.08
2024-04-23T09:21:16.156Z,10.13
2024-04-23T09:24:27.146Z,10.40
2024-04-23T09:27:32.898Z,10.52
2024-04-23T09:30:39.003Z,10.76
2024-04-23T09:33:55.423Z,10.77
2024-04-23T09:36:58.072Z,10.78
2024-04-23T09:40:04.315Z,10.68
2024-04-23T09:43:07.494Z,10.53
2024-04-23T09:46:11.158Z,10.40
2024-04-23T09:49:14.191Z,10.31
2024-04-23T09:52:36.255Z,10.35
2024-04-23T09:55:38.870Z,10.32
2024-04-23T09:58:41.406Z,10.31
2024-04-23T10:01:48.637Z,10.26
2024-04-23T10:04:55.966Z,10.16
2024-04-23T10:07:59.070Z,10.22
2024-04-23T10:11:03.157Z,10.33
2024-04-23T10:14:14.756Z,10.50
2024-04-23T10:17:28.882Z,10.50
2024-04-23T10:20:39.025Z,10.39
2024-04-23T10:23:41.764Z,10.47
2024-04-23T10:26:45.772Z,10.60
2024-04-23T10:29:48.947Z,10.66
2024-04-23T10:32:53.293Z,10.47
2024-04-23T10:35:56.025Z,10.31
2024-04-23T10:39:00.063Z,10.24
2024-04-23T10:42:06.403Z,10.29
2024-04-23T10:45:10.267Z,10.25
2024-04-23T10:48:12.862Z,10.25
2024-04-23T10:51:15.420Z,10.28
2024-04-23T10:54:21.994Z,10.35
2024-04-23T10:57:26.262Z,10.41
2024-04-23T11:00:37.051Z,10.55
2024-04-23T11:03:40.004Z,10.63
2024-04-23T11:06:42.589Z,10.77
2024-04-23T11:09:47.074Z,10.85
2024-04-23T11:12:49.631Z,10.78
2024-04-23T11:15:52.330Z,10.83
2024-04-23T11:18:58.892Z,11.06
2024-04-23T11:22:06.036Z,11.29
2024-04-23T11:25:13.876Z,11.37
2024-04-23T11:28:16.590Z,11.36
2024-04-23T11:31:20.483Z,11.24
2024-04-23T11:34:25.289Z,11.05
2024-04-23T11:37:31.950Z,10.95
2024-04-23T11:40:34.524Z,10.79
2024-04-23T11:43:37.047Z,10.71
2024-04-23T11:46:41.459Z,10.71
2024-04-23T11:49:44.001Z,10.80
2024-04-23T11:52:47.068Z,10.95
2024-04-23T11:55:49.703Z,11.16
2024-04-23T11:58:52.782Z,11.29
2024-04-23T12:01:56.081Z,11.33
2024-04-23T12:05:01.166Z,11.44
2024-04-23T12:08:04.643Z,11.53
2024-04-23T12:11:07.553Z,11.63
2024-04-23T12:14:13.336Z,11.63
2024-04-23T12:17:15.939Z,11.44
2024-04-23T12:20:18.723Z,11.21
2024-04-23T12:23:21.823Z,11.08
2024-04-23T12:26:25.243Z,11.05
2024-04-23T12:29:29.480Z,11.06
2024-04-23T12:32:33.283Z,11.13
2024-04-23T12:35:36.257Z,11.31
2024-04-23T12:38:46.004Z,11.47
2024-04-23T12:41:48.685Z,11.52
2024-04-23T12:44:51.395Z,11.58
2024-04-23T12:47:57.509Z,11.65
2024-04-23T12:51:00.134Z,11.56
2024-04-23T12:54:09.479Z,11.40
2024-04-23T12:57:12.417Z,11.24
2024-04-23T13:00:15.792Z,11.22
2024-04-23T13:03:18.424Z,11.35
2024-04-23T13:06:21.006Z,11.58
2024-04-23T13:09:23.662Z,11.76
2024-04-23T13:12:26.159Z,11.92
2024-04-23T13:15:28.641Z,12.02
2024-04-23T13:18:32.045Z,12.09
2024-04-23T13:21:34.595Z,12.13
2024-04-23T13:24:37.185Z,12.17
2024-04-23T13:27:39.648Z,12.32
2024-04-23T13:30:42.215Z,12.35
2024-04-23T13:33:44.770Z,12.43
2024-04-23T13:36:47.501Z,12.52
2024-04-23T13:39:50.080Z,12.56
2024-04-23T13:42:52.716Z,12.60
2024-04-23T13:45:56.167Z,12.54
2024-04-23T13:48:58.699Z,12.44
2024-04-23T13:52:01.212Z,12.34
2024-04-23T13:55:04.200Z,12.21
2024-04-23T13:58:06.705Z,12.01
2024-04-23T14:01:10.021Z,11.94
2024-04-23T14:04:13.134Z,11.91
2024-04-23T14:07:19.445Z,11.82
2024-04-23T14:10:22.077Z,11.66
2024-04-23T14:13:24.556Z,11.37
2024-04-23T14:16:27.243Z,11.18
2024-04-23T14:19:34.795Z,11.01
2024-04-23T14:22:38.178Z,10.89
2024-04-23T14:25:40.866Z,10.69
2024-04-23T14:28:43.719Z,10.55
2024-04-23T14:31:46.313Z,10.46
2024-04-23T14:34:49.027Z,10.40
2024-04-23T14:37:51.543Z,10.29
2024-04-23T14:41:04.948Z,10.29
2024-04-23T14:44:07.498Z,10.25
2024-04-23T14:47:10.293Z,10.27
2024-04-23T14:50:14.889Z,10.33
2024-04-23T14:53:21.410Z,10.45
2024-04-23T14:56:26.361Z,10.49
2024-04-23T14:59:28.896Z,10.50
2024-04-23T15:02:31.496Z,10.57
2024-04-23T15:05:33.976Z,10.67
2024-04-23T15:08:39.741Z,10.78
2024-04-23T15:11:42.161Z,10.92
2024-04-23T15:14:46.890Z,11.00
2024-04-23T15:17:49.386Z,11.05
2024-04-23T15:20:51.990Z,11.04
2024-04-23T15:23:54.445Z,11.01
2024-04-23T15:26:57.155Z,10.90
2024-04-23T15:29:59.701Z,10.71
2024-04-23T15:33:02.468Z,10.57
2024-04-23T15:36:12.449Z,10.47
2024-04-23T15:39:19.367Z,10.40
2024-04-23T15:42:23.189Z,10.29
2024-04-23T15:45:25.790Z,10.19
2024-04-23T15:48:29.306Z,10.15
2024-04-23T15:51:31.840Z,10.15
2024-04-23T15:54:34.304Z,10.21
2024-04-23T15:57:36.819Z,10.28
2024-04-23T16:00:39.293Z,10.43
2024-04-23T16:03:42.490Z,10.56
2024-04-23T16:06:45.065Z,10.57
2024-04-23T16:09:47.564Z,10.53
2024-04-23T16:12:52.494Z,10.46
2024-04-23T16:15:57.233Z,10.36
2024-04-23T16:18:59.790Z,10.24
2024-04-23T16:22:02.339Z,10.13
2024-04-23T16:25:05.068Z,10.07
2024-04-23T16:28:07.529Z,9.96
2024-04-23T16:31:10.301Z,9.91
2024-04-23T16:34:12.955Z,9.81
2024-04-23T16:37:15.610Z,9.69
2024-04-23T16:40:18.157Z,9.56
2024-04-23T16:43:20.641Z,9.44
2024-04-23T16:46:23.127Z,9.33
2024-04-23T16:49:25.635Z,9.23
2024-04-23T16:52:28.549Z,9.11
2024-04-23T16:55:31.175Z,9.01
2024-04-23T16:58:33.675Z,8.91
2024-04-23T17:01:36.179Z,8.82
2024-04-23T17:04:38.711Z,8.76
2024-04-23T17:07:41.302Z,8.69
2024-04-23T17:10:45.502Z,8.64
2024-04-23T17:13:48.161Z,8.60
2024-04-23T17:16:51.926Z,8.55
2024-04-23T17:19:54.563Z,8.50
2024-04-23T17:22:57.084Z,8.44
2024-04-23T17:26:01.203Z,8.38
2024-04-23T17:29:03.781Z,8.34
2024-04-23T17:32:06.574Z,8.29
2024-04-23T17:35:09.552Z,8.24
2024-04-23T17:38:12.092Z,8.19
2024-04-23T17:41:14.691Z,8.16
2024-04-23T17:44:17.369Z,8.14
2024-04-23T17:47:20.070Z,8.11
2024-04-23T17:50:22.726Z,8.09
2024-04-23T17:53:25.305Z,8.06
2024-04-23T17:56:27.945Z,8.03
2024-04-23T17:59:30.487Z,7.99
2024-04-23T18:02:33.111Z,7.95
2024-04-23T18:05:36.198Z,7.93
2024-04-23T18:08:38.899Z,7.89
2024-04-23T18:11:44.796Z,7.86
2024-04-23T18:14:47.426Z,7.82
2024-04-23T18:17:54.272Z,7.76
2024-04-23T18:21:02.963Z,7.73
2024-04-23T18:24:08.394Z,7.69
2024-04-23T18:27:11.116Z,7.65
2024-04-23T18:30:13.746Z,7.62
2024-04-23T18:33:16.335Z,7.58
2024-04-23T18:36:18.872Z,7.53
2024-04-23T18:39:21.598Z,7.51
2024-04-23T18:42:24.098Z,7.48
2024-04-23T18:45:28.936Z,7.47
2024-04-23T18:48:31.603Z,7.44
2024-04-23T18:51:34.198Z,7.42
2024-04-23T18:54:36.705Z,7.41
2024-04-23T18:57:39.166Z,7.39
2024-04-23T19:00:41.717Z,7.38
2024-04-23T19:03:44.782Z,7.37
2024-04-23T19:06:47.549Z,7.37
2024-04-23T19:09:51.203Z,7.39
2024-04-23T19:12:54.881Z,7.38
2024-04-23T19:16:03.965Z,7.36
2024-04-23T19:19:06.484Z,7.35
2024-04-23T19:22:08.970Z,7.32
2024-04-23T19:25:11.719Z,7.29
2024-04-23T19:28:14.211Z,7.26
2024-04-23T19:31:16.686Z,7.21
2024-04-23T19:34:19.120Z,7.17
2024-04-23T19:37:21.626Z,7.15
2024-04-23T19:40:24.251Z,7.11
2024-04-23T19:43:26.762Z,7.09
2024-04-23T19:46:31.260Z,7.06
2024-04-23T19:49:34.411Z,7.03
2024-04-23T19:52:36.962Z,7.02
2024-04-23T19:55:39.584Z,7.01
2024-04-23T19:58:54.397Z,6.98
2024-04-23T20:01:56.967Z,6.97
2024-04-23T20:04:59.487Z,6.96
2024-04-23T20:08:02.208Z,6.95
2024-04-23T20:11:04.790Z,6.95
2024-04-23T20:14:07.403Z,6.93
2024-04-23T20:17:11.334Z,6.90
2024-04-23T20:20:14.039Z,6.88
2024-04-23T20:23:16.767Z,6.85
2024-04-23T20:26:20.359Z,6.81
2024-04-23T20:29:22.947Z,6.78
2024-04-23T20:32:25.462Z,6.76
2024-04-23T20:35:28.336Z,6.73
2024-04-23T20:38:31.332Z,6.72
2024-04-23T20:41:33.844Z,6.69
2024-04-23T20:44:36.415Z,6.67
2024-04-23T20:47:39.795Z,6.64
2024-04-23T20:50:42.439Z,6.62
2024-04-23T20:53:45.295Z,6.60
2024-04-23T20:56:47.860Z,6.58
2024-04-23T20:59:50.421Z,6.55
2024-04-23T21:02:52.927Z,6.52
2024-04-23T21:05:55.910Z,6.49
2024-04-23T21:08:58.475Z,6.47
2024-04-23T21:12:01.127Z,6.44
2024-04-23T21:15:03.897Z,6.41
2024-04-23T21:18:06.631Z,6.40
2024-04-23T21:21:09.270Z,6.38
2024-04-23T21:24:11.859Z,6.36
2024-04-23T21:27:15.194Z,6.35
2024-04-23T21:30:17.754Z,6.32
2024-04-23T21:33:20.302Z,6.30
2024-04-23T21:36:25.725Z,6.27
2024-04-23T21:39:29.578Z,6.25
2024-04-23T21:42:39.544Z,6.23
2024-04-23T21:45:45.131Z,6.20
2024-04-23T21:48:48.202Z,6.19
2024-04-23T21:52:15.635Z,6.16
2024-04-23T21:55:13.423Z,6.13
2024-04-23T21:58:15.911Z,6.11
2024-04-23T22:01:18.513Z,6.09
2024-04-23T22:04:21.033Z,6.07
2024-04-23T22:07:23.564Z,6.04
2024-04-23T22:10:26.206Z,6.01
2024-04-23T22:13:28.727Z,5.97
2024-04-23T22:16:31.239Z,5.95
2024-04-23T22:19:33.723Z,5.92
2024-04-23T22:22:36.330Z,5.89
2024-04-23T22:25:38.980Z,5.87
2024-04-23T22:28:41.527Z,5.85
2024-04-23T22:31:44.100Z,5.81
2024-04-23T22:34:46.587Z,5.79
2024-04-23T22:37:50.505Z,5.78
2024-04-23T22:40:53.067Z,5.77
2024-04-23T22:43:55.584Z,5.75
2024-04-23T22:46:58.147Z,5.73
2024-04-23T22:50:00.775Z,5.71
2024-04-23T22:53:03.452Z,5.68
2024-04-23T22:56:06.131Z,5.65
2024-04-23T22:59:08.699Z,5.62
2024-04-23T23:02:11.468Z,5.59
2024-04-23T23:05:14.174Z,5.56
2024-04-23T23:08:16.820Z,5.52
2024-04-23T23:11:19.554Z,5.47
2024-04-23T23:14:22.196Z,5.41
2024-04-23T23:17:24.727Z,5.35
2024-04-23T23:20:27.402Z,5.29
2024-04-23T23:23:29.979Z,5.22
2024-04-23T23:26:36.815Z,5.17
2024-04-23T23:29:39.362Z,5.11
2024-04-23T23:32:42.107Z,5.04
2024-04-23T23:35:44.677Z,4.99
2024-04-23T23:38:47.239Z,4.93
2024-04-23T23:41:49.725Z,4.89
2024-04-23T23:44:52.238Z,4.86
2024-04-23T23:47:54.911Z,4.83
2024-04-23T23:50:57.566Z,4.80
2024-04-23T23:54:00.155Z,4.80
2024-04-23T23:57:02.704Z,4.81
